sensor_id;sensor_type;location;lat;lon;timestamp;P1;durP1;ratioP1;P2;durP2;ratioP2
53269;SDS011;39159;45.634;9.420;2024-03-25T00:01:53;0.70;;;0.70;;
53269;SDS011;39159;45.634;9.420;2024-03-25T00:04:18;0.80;;;0.70;;
53269;SDS011;39159;45.634;9.420;2024-03-25T00:06:45;1.35;;;0.70;;
53269;SDS011;39159;45.634;9.420;2024-03-25T00:09:11;0.85;;;0.70;;
53269;SDS011;39159;45.634;9.420;2024-03-25T00:11:39;0.52;;;0.50;;
53269;SDS011;39159;45.634;9.420;2024-03-25T00:14:05;0.68;;;0.63;;
53269;SDS011;39159;45.634;9.420;2024-03-25T00:16:30;2.85;;;0.70;;
53269;SDS011;39159;45.634;9.420;2024-03-25T00:18:56;0.70;;;0.65;;
53269;SDS011;39159;45.634;9.420;2024-03-25T00:21:21;0.60;;;0.60;;
53269;SDS011;39159;45.634;9.420;2024-03-25T00:23:46;0.65;;;0.65;;
53269;SDS011;39159;45.634;9.420;2024-03-25T00:26:12;0.70;;;0.60;;
53269;SDS011;39159;45.634;9.420;2024-03-25T00:28:37;2.70;;;0.60;;
53269;SDS011;39159;45.634;9.420;2024-03-25T00:31:03;0.50;;;0.50;;
53269;SDS011;39159;45.634;9.420;2024-03-25T00:33:29;0.70;;;0.50;;
53269;SDS011;39159;45.634;9.420;2024-03-25T00:35:54;0.57;;;0.57;;
53269;SDS011;39159;45.634;9.420;2024-03-25T00:38:19;0.70;;;0.50;;
53269;SDS011;39159;45.634;9.420;2024-03-25T00:40:45;0.60;;;0.60;;
53269;SDS011;39159;45.634;9.420;2024-03-25T00:43:10;0.50;;;0.50;;
53269;SDS011;39159;45.634;9.420;2024-03-25T00:45:35;0.90;;;0.43;;
53269;SDS011;39159;45.634;9.420;2024-03-25T00:48:02;0.60;;;0.60;;
53269;SDS011;39159;45.634;9.420;2024-03-25T00:50:27;0.60;;;0.60;;
53269;SDS011;39159;45.634;9.420;2024-03-25T00:52:52;0.57;;;0.50;;
53269;SDS011;39159;45.634;9.420;2024-03-25T00:55:18;0.50;;;0.50;;
53269;SDS011;39159;45.634;9.420;2024-03-25T00:57:44;0.60;;;0.60;;
53269;SDS011;39159;45.634;9.420;2024-03-25T01:00:09;0.45;;;0.45;;
53269;SDS011;39159;45.634;9.420;2024-03-25T01:02:35;0.50;;;0.50;;
53269;SDS011;39159;45.634;9.420;2024-03-25T01:05:01;0.50;;;0.50;;
53269;SDS011;39159;45.634;9.420;2024-03-25T01:07:27;0.50;;;0.45;;
53269;SDS011;39159;45.634;9.420;2024-03-25T01:09:52;0.70;;;0.65;;
53269;SDS011;39159;45.634;9.420;2024-03-25T01:12:18;0.70;;;0.50;;
53269;SDS011;39159;45.634;9.420;2024-03-25T01:14:43;0.85;;;0.43;;
53269;SDS011;39159;45.634;9.420;2024-03-25T01:17:09;0.60;;;0.60;;
53269;SDS011;39159;45.634;9.420;2024-03-25T01:19:34;1.58;;;0.50;;
53269;SDS011;39159;45.634;9.420;2024-03-25T01:21:59;0.60;;;0.60;;
53269;SDS011;39159;45.634;9.420;2024-03-25T01:24:25;0.50;;;0.50;;
53269;SDS011;39159;45.634;9.420;2024-03-25T01:26:50;0.40;;;0.40;;
53269;SDS011;39159;45.634;9.420;2024-03-25T01:29:16;2.13;;;0.50;;
53269;SDS011;39159;45.634;9.420;2024-03-25T01:31:42;0.50;;;0.50;;
53269;SDS011;39159;45.634;9.420;2024-03-25T01:34:07;0.50;;;0.50;;
53269;SDS011;39159;45.634;9.420;2024-03-25T01:36:32;0.43;;;0.43;;
53269;SDS011;39159;45.634;9.420;2024-03-25T01:38:59;0.40;;;0.40;;
53269;SDS011;39159;45.634;9.420;2024-03-25T01:41:24;0.50;;;0.50;;
53269;SDS011;39159;45.634;9.420;2024-03-25T01:43:50;0.45;;;0.45;;
53269;SDS011;39159;45.634;9.420;2024-03-25T01:46:18;0.40;;;0.40;;
53269;SDS011;39159;45.634;9.420;2024-03-25T01:48:46;0.40;;;0.40;;
53269;SDS011;39159;45.634;9.420;2024-03-25T01:51:13;0.52;;;0.50;;
53269;SDS011;39159;45.634;9.420;2024-03-25T01:53:41;2.25;;;0.70;;
53269;SDS011;39159;45.634;9.420;2024-03-25T01:56:08;0.50;;;0.50;;
53269;SDS011;39159;45.634;9.420;2024-03-25T01:58:35;0.52;;;0.52;;
53269;SDS011;39159;45.634;9.420;2024-03-25T02:01:01;1.10;;;0.50;;
53269;SDS011;39159;45.634;9.420;2024-03-25T02:03:28;0.50;;;0.50;;
53269;SDS011;39159;45.634;9.420;2024-03-25T02:05:55;0.60;;;0.60;;
53269;SDS011;39159;45.634;9.420;2024-03-25T02:08:25;1.42;;;0.80;;
53269;SDS011;39159;45.634;9.420;2024-03-25T02:10:52;0.50;;;0.47;;
53269;SDS011;39159;45.634;9.420;2024-03-25T02:13:19;0.60;;;0.60;;
53269;SDS011;39159;45.634;9.420;2024-03-25T02:15:44;0.50;;;0.50;;
53269;SDS011;39159;45.634;9.420;2024-03-25T02:18:10;0.85;;;0.43;;
53269;SDS011;39159;45.634;9.420;2024-03-25T02:20:35;0.65;;;0.40;;
53269;SDS011;39159;45.634;9.420;2024-03-25T02:23:01;0.60;;;0.60;;
53269;SDS011;39159;45.634;9.420;2024-03-25T02:25:27;1.15;;;0.60;;
53269;SDS011;39159;45.634;9.420;2024-03-25T02:27:53;1.05;;;0.80;;
53269;SDS011;39159;45.634;9.420;2024-03-25T02:30:18;0.70;;;0.60;;
53269;SDS011;39159;45.634;9.420;2024-03-25T02:32:43;0.60;;;0.60;;
53269;SDS011;39159;45.634;9.420;2024-03-25T02:35:10;0.50;;;0.50;;
53269;SDS011;39159;45.634;9.420;2024-03-25T02:37:38;1.45;;;0.60;;
53269;SDS011;39159;45.634;9.420;2024-03-25T02:40:06;0.90;;;0.75;;
53269;SDS011;39159;45.634;9.420;2024-03-25T02:42:34;1.27;;;0.63;;
53269;SDS011;39159;45.634;9.420;2024-03-25T02:45:00;0.70;;;0.70;;
53269;SDS011;39159;45.634;9.420;2024-03-25T02:47:26;2.25;;;0.65;;
53269;SDS011;39159;45.634;9.420;2024-03-25T02:49:51;0.63;;;0.63;;
53269;SDS011;39159;45.634;9.420;2024-03-25T02:52:17;1.33;;;0.70;;
53269;SDS011;39159;45.634;9.420;2024-03-25T02:54:44;0.85;;;0.80;;
53269;SDS011;39159;45.634;9.420;2024-03-25T02:57:09;0.98;;;0.70;;
53269;SDS011;39159;45.634;9.420;2024-03-25T02:59:35;0.90;;;0.80;;
53269;SDS011;39159;45.634;9.420;2024-03-25T03:02:00;0.82;;;0.73;;
53269;SDS011;39159;45.634;9.420;2024-03-25T03:04:25;1.33;;;0.90;;
53269;SDS011;39159;45.634;9.420;2024-03-25T03:06:51;1.42;;;0.82;;
53269;SDS011;39159;45.634;9.420;2024-03-25T03:09:16;0.88;;;0.70;;
53269;SDS011;39159;45.634;9.420;2024-03-25T03:11:41;0.70;;;0.70;;
53269;SDS011;39159;45.634;9.420;2024-03-25T03:14:07;0.93;;;0.80;;
53269;SDS011;39159;45.634;9.420;2024-03-25T03:16:32;1.25;;;0.63;;
53269;SDS011;39159;45.634;9.420;2024-03-25T03:18:58;1.00;;;0.80;;
53269;SDS011;39159;45.634;9.420;2024-03-25T03:21:23;1.02;;;0.80;;
53269;SDS011;39159;45.634;9.420;2024-03-25T03:23:49;0.88;;;0.70;;
53269;SDS011;39159;45.634;9.420;2024-03-25T03:26:14;0.85;;;0.63;;
53269;SDS011;39159;45.634;9.420;2024-03-25T03:28:40;0.77;;;0.77;;
53269;SDS011;39159;45.634;9.420;2024-03-25T03:31:05;1.17;;;0.80;;
53269;SDS011;39159;45.634;9.420;2024-03-25T03:33:31;2.05;;;0.75;;
53269;SDS011;39159;45.634;9.420;2024-03-25T03:35:56;1.75;;;1.00;;
53269;SDS011;39159;45.634;9.420;2024-03-25T03:38:22;1.73;;;0.60;;
53269;SDS011;39159;45.634;9.420;2024-03-25T03:40:57;3.70;;;0.80;;
53269;SDS011;39159;45.634;9.420;2024-03-25T03:43:27;1.45;;;1.17;;
53269;SDS011;39159;45.634;9.420;2024-03-25T03:45:52;16.60;;;2.33;;
53269;SDS011;39159;45.634;9.420;2024-03-25T03:48:17;2.15;;;0.60;;
53269;SDS011;39159;45.634;9.420;2024-03-25T03:50:43;3.25;;;1.60;;
53269;SDS011;39159;45.634;9.420;2024-03-25T03:53:09;0.60;;;0.60;;
53269;SDS011;39159;45.634;9.420;2024-03-25T03:55:34;0.50;;;0.50;;
53269;SDS011;39159;45.634;9.420;2024-03-25T03:58:00;1.98;;;0.60;;
53269;SDS011;39159;45.634;9.420;2024-03-25T04:00:25;0.40;;;0.40;;
53269;SDS011;39159;45.634;9.420;2024-03-25T04:02:51;0.75;;;0.50;;
53269;SDS011;39159;45.634;9.420;2024-03-25T04:05:16;1.13;;;0.40;;
53269;SDS011;39159;45.634;9.420;2024-03-25T04:07:41;1.05;;;0.70;;
53269;SDS011;39159;45.634;9.420;2024-03-25T04:10:07;0.52;;;0.50;;
53269;SDS011;39159;45.634;9.420;2024-03-25T04:12:33;1.08;;;0.50;;
53269;SDS011;39159;45.634;9.420;2024-03-25T04:14:58;3.72;;;1.17;;
53269;SDS011;39159;45.634;9.420;2024-03-25T04:17:23;0.60;;;0.50;;
53269;SDS011;39159;45.634;9.420;2024-03-25T04:19:49;1.00;;;0.60;;
53269;SDS011;39159;45.634;9.420;2024-03-25T04:22:15;0.85;;;0.50;;
53269;SDS011;39159;45.634;9.420;2024-03-25T04:24:42;0.63;;;0.50;;
53269;SDS011;39159;45.634;9.420;2024-03-25T04:27:08;1.00;;;0.52;;
53269;SDS011;39159;45.634;9.420;2024-03-25T04:29:33;0.70;;;0.70;;
53269;SDS011;39159;45.634;9.420;2024-03-25T04:31:58;0.60;;;0.55;;
53269;SDS011;39159;45.634;9.420;2024-03-25T04:34:24;0.65;;;0.55;;
53269;SDS011;39159;45.634;9.420;2024-03-25T04:36:49;0.50;;;0.50;;
53269;SDS011;39159;45.634;9.420;2024-03-25T04:39:14;2.22;;;0.60;;
53269;SDS011;39159;45.634;9.420;2024-03-25T04:41:40;0.70;;;0.60;;
53269;SDS011;39159;45.634;9.420;2024-03-25T04:44:05;0.70;;;0.60;;
53269;SDS011;39159;45.634;9.420;2024-03-25T04:46:31;1.10;;;0.60;;
53269;SDS011;39159;45.634;9.420;2024-03-25T04:48:56;0.60;;;0.50;;
53269;SDS011;39159;45.634;9.420;2024-03-25T04:51:21;0.60;;;0.60;;
53269;SDS011;39159;45.634;9.420;2024-03-25T04:53:47;0.60;;;0.60;;
53269;SDS011;39159;45.634;9.420;2024-03-25T04:56:12;0.65;;;0.65;;
53269;SDS011;39159;45.634;9.420;2024-03-25T04:58:38;0.70;;;0.70;;
53269;SDS011;39159;45.634;9.420;2024-03-25T05:01:03;0.70;;;0.70;;
53269;SDS011;39159;45.634;9.420;2024-03-25T05:03:29;0.73;;;0.60;;
53269;SDS011;39159;45.634;9.420;2024-03-25T05:05:54;0.98;;;0.60;;
53269;SDS011;39159;45.634;9.420;2024-03-25T05:08:19;1.38;;;0.70;;
53269;SDS011;39159;45.634;9.420;2024-03-25T05:10:45;0.77;;;0.50;;
53269;SDS011;39159;45.634;9.420;2024-03-25T05:13:11;0.52;;;0.50;;
53269;SDS011;39159;45.634;9.420;2024-03-25T05:15:36;1.50;;;0.70;;
53269;SDS011;39159;45.634;9.420;2024-03-25T05:18:01;1.55;;;0.63;;
53269;SDS011;39159;45.634;9.420;2024-03-25T05:20:27;1.30;;;0.70;;
53269;SDS011;39159;45.634;9.420;2024-03-25T05:22:52;0.65;;;0.60;;
53269;SDS011;39159;45.634;9.420;2024-03-25T05:25:17;1.20;;;1.15;;
53269;SDS011;39159;45.634;9.420;2024-03-25T05:27:43;2.28;;;0.80;;
53269;SDS011;39159;45.634;9.420;2024-03-25T05:30:08;2.70;;;0.90;;
53269;SDS011;39159;45.634;9.420;2024-03-25T05:32:34;1.90;;;0.65;;
53269;SDS011;39159;45.634;9.420;2024-03-25T05:34:59;1.10;;;0.65;;
53269;SDS011;39159;45.634;9.420;2024-03-25T05:37:25;5.25;;;0.73;;
53269;SDS011;39159;45.634;9.420;2024-03-25T05:39:50;0.73;;;0.60;;
53269;SDS011;39159;45.634;9.420;2024-03-25T05:42:15;1.25;;;0.52;;
53269;SDS011;39159;45.634;9.420;2024-03-25T05:44:40;1.33;;;0.80;;
53269;SDS011;39159;45.634;9.420;2024-03-25T05:47:06;0.60;;;0.60;;
53269;SDS011;39159;45.634;9.420;2024-03-25T05:49:31;0.82;;;0.70;;
53269;SDS011;39159;45.634;9.420;2024-03-25T05:51:56;0.70;;;0.70;;
53269;SDS011;39159;45.634;9.420;2024-03-25T05:54:22;1.08;;;0.80;;
53269;SDS011;39159;45.634;9.420;2024-03-25T05:56:47;1.02;;;0.70;;
53269;SDS011;39159;45.634;9.420;2024-03-25T05:59:12;1.20;;;0.65;;
53269;SDS011;39159;45.634;9.420;2024-03-25T06:01:38;1.00;;;0.80;;
53269;SDS011;39159;45.634;9.420;2024-03-25T06:04:05;1.17;;;0.60;;
53269;SDS011;39159;45.634;9.420;2024-03-25T06:06:30;1.17;;;0.80;;
53269;SDS011;39159;45.634;9.420;2024-03-25T06:08:55;0.70;;;0.63;;
53269;SDS011;39159;45.634;9.420;2024-03-25T06:11:21;1.33;;;0.60;;
53269;SDS011;39159;45.634;9.420;2024-03-25T06:13:47;3.15;;;0.80;;
53269;SDS011;39159;45.634;9.420;2024-03-25T06:16:12;0.68;;;0.68;;
53269;SDS011;39159;45.634;9.420;2024-03-25T06:18:38;5.28;;;0.77;;
53269;SDS011;39159;45.634;9.420;2024-03-25T06:21:05;2.95;;;0.70;;
53269;SDS011;39159;45.634;9.420;2024-03-25T06:23:30;3.53;;;0.75;;
53269;SDS011;39159;45.634;9.420;2024-03-25T06:25:56;1.90;;;0.80;;
53269;SDS011;39159;45.634;9.420;2024-03-25T06:28:21;0.88;;;0.73;;
53269;SDS011;39159;45.634;9.420;2024-03-25T06:30:47;1.98;;;0.52;;
53269;SDS011;39159;45.634;9.420;2024-03-25T06:33:32;1.33;;;0.63;;
53269;SDS011;39159;45.634;9.420;2024-03-25T06:36:17;1.95;;;0.70;;
53269;SDS011;39159;45.634;9.420;2024-03-25T06:38:43;0.85;;;0.75;;
53269;SDS011;39159;45.634;9.420;2024-03-25T06:41:09;3.03;;;0.90;;
53269;SDS011;39159;45.634;9.420;2024-03-25T06:43:35;1.15;;;0.70;;
53269;SDS011;39159;45.634;9.420;2024-03-25T06:46:00;1.13;;;0.77;;
53269;SDS011;39159;45.634;9.420;2024-03-25T06:48:26;0.82;;;0.70;;
53269;SDS011;39159;45.634;9.420;2024-03-25T06:50:56;6.05;;;0.80;;
53269;SDS011;39159;45.634;9.420;2024-03-25T06:53:23;0.93;;;0.70;;
53269;SDS011;39159;45.634;9.420;2024-03-25T06:55:55;3.60;;;0.80;;
53269;SDS011;39159;45.634;9.420;2024-03-25T06:58:22;1.10;;;0.60;;
53269;SDS011;39159;45.634;9.420;2024-03-25T07:00:48;3.25;;;0.70;;
53269;SDS011;39159;45.634;9.420;2024-03-25T07:03:15;1.00;;;0.63;;
53269;SDS011;39159;45.634;9.420;2024-03-25T07:05:44;3.50;;;0.75;;
53269;SDS011;39159;45.634;9.420;2024-03-25T07:08:10;1.30;;;0.65;;
53269;SDS011;39159;45.634;9.420;2024-03-25T07:10:36;2.97;;;0.63;;
53269;SDS011;39159;45.634;9.420;2024-03-25T07:13:01;3.10;;;0.73;;
53269;SDS011;39159;45.634;9.420;2024-03-25T07:15:26;2.30;;;0.70;;
53269;SDS011;39159;45.634;9.420;2024-03-25T07:17:52;2.72;;;0.68;;
53269;SDS011;39159;45.634;9.420;2024-03-25T07:20:17;3.55;;;0.70;;
53269;SDS011;39159;45.634;9.420;2024-03-25T07:22:44;0.68;;;0.68;;
53269;SDS011;39159;45.634;9.420;2024-03-25T07:25:09;0.85;;;0.50;;
53269;SDS011;39159;45.634;9.420;2024-03-25T07:27:35;2.15;;;0.60;;
53269;SDS011;39159;45.634;9.420;2024-03-25T07:30:00;1.40;;;0.70;;
53269;SDS011;39159;45.634;9.420;2024-03-25T07:32:25;1.08;;;0.68;;
53269;SDS011;39159;45.634;9.420;2024-03-25T07:34:50;1.85;;;0.85;;
53269;SDS011;39159;45.634;9.420;2024-03-25T07:37:16;1.40;;;0.82;;
53269;SDS011;39159;45.634;9.420;2024-03-25T07:39:42;2.88;;;0.70;;
53269;SDS011;39159;45.634;9.420;2024-03-25T07:42:07;1.33;;;0.70;;
53269;SDS011;39159;45.634;9.420;2024-03-25T07:44:33;1.10;;;0.70;;
53269;SDS011;39159;45.634;9.420;2024-03-25T07:46:58;1.40;;;1.00;;
53269;SDS011;39159;45.634;9.420;2024-03-25T07:49:23;1.40;;;0.68;;
53269;SDS011;39159;45.634;9.420;2024-03-25T07:51:49;1.48;;;0.82;;
53269;SDS011;39159;45.634;9.420;2024-03-25T07:54:14;1.00;;;0.70;;
53269;SDS011;39159;45.634;9.420;2024-03-25T07:56:41;1.13;;;0.80;;
53269;SDS011;39159;45.634;9.420;2024-03-25T07:59:07;3.33;;;0.77;;
53269;SDS011;39159;45.634;9.420;2024-03-25T08:01:32;3.05;;;1.08;;
53269;SDS011;39159;45.634;9.420;2024-03-25T08:03:57;1.15;;;0.80;;
53269;SDS011;39159;45.634;9.420;2024-03-25T08:06:23;3.58;;;1.00;;
53269;SDS011;39159;45.634;9.420;2024-03-25T08:08:48;2.33;;;0.90;;
53269;SDS011;39159;45.634;9.420;2024-03-25T08:11:14;2.17;;;0.95;;
53269;SDS011;39159;45.634;9.420;2024-03-25T08:13:39;0.93;;;0.80;;
53269;SDS011;39159;45.634;9.420;2024-03-25T08:16:04;2.63;;;0.90;;
53269;SDS011;39159;45.634;9.420;2024-03-25T08:18:30;1.40;;;0.90;;
53269;SDS011;39159;45.634;9.420;2024-03-25T08:20:55;1.33;;;0.80;;
53269;SDS011;39159;45.634;9.420;2024-03-25T08:23:21;2.58;;;0.90;;
53269;SDS011;39159;45.634;9.420;2024-03-25T08:25:46;0.90;;;0.90;;
53269;SDS011;39159;45.634;9.420;2024-03-25T08:28:11;4.72;;;1.10;;
53269;SDS011;39159;45.634;9.420;2024-03-25T08:30:37;1.90;;;0.88;;
53269;SDS011;39159;45.634;9.420;2024-03-25T08:33:02;3.17;;;1.00;;
53269;SDS011;39159;45.634;9.420;2024-03-25T08:35:27;1.05;;;0.95;;
53269;SDS011;39159;45.634;9.420;2024-03-25T08:37:53;3.33;;;1.05;;
53269;SDS011;39159;45.634;9.420;2024-03-25T08:40:18;2.88;;;1.73;;
53269;SDS011;39159;45.634;9.420;2024-03-25T08:42:43;2.45;;;1.30;;
53269;SDS011;39159;45.634;9.420;2024-03-25T08:45:09;2.22;;;0.90;;
53269;SDS011;39159;45.634;9.420;2024-03-25T08:47:35;2.88;;;1.20;;
53269;SDS011;39159;45.634;9.420;2024-03-25T08:50:00;6.47;;;1.38;;
53269;SDS011;39159;45.634;9.420;2024-03-25T08:52:25;7.65;;;3.53;;
53269;SDS011;39159;45.634;9.420;2024-03-25T08:54:51;8.00;;;3.55;;
53269;SDS011;39159;45.634;9.420;2024-03-25T08:57:16;9.10;;;4.28;;
53269;SDS011;39159;45.634;9.420;2024-03-25T08:59:42;9.73;;;4.72;;
53269;SDS011;39159;45.634;9.420;2024-03-25T09:02:07;16.90;;;7.22;;
53269;SDS011;39159;45.634;9.420;2024-03-25T09:04:33;30.52;;;13.85;;
53269;SDS011;39159;45.634;9.420;2024-03-25T09:06:59;4.82;;;2.60;;
53269;SDS011;39159;45.634;9.420;2024-03-25T09:09:24;2.97;;;1.50;;
53269;SDS011;39159;45.634;9.420;2024-03-25T09:12:08;3.30;;;1.33;;
53269;SDS011;39159;45.634;9.420;2024-03-25T09:14:33;1.83;;;1.50;;
53269;SDS011;39159;45.634;9.420;2024-03-25T09:16:59;3.88;;;1.83;;
53269;SDS011;39159;45.634;9.420;2024-03-25T09:19:24;4.18;;;1.98;;
53269;SDS011;39159;45.634;9.420;2024-03-25T09:21:49;5.25;;;1.90;;
53269;SDS011;39159;45.634;9.420;2024-03-25T09:24:15;4.53;;;2.00;;
53269;SDS011;39159;45.634;9.420;2024-03-25T09:26:42;5.07;;;2.03;;
53269;SDS011;39159;45.634;9.420;2024-03-25T09:29:07;2.25;;;1.58;;
53269;SDS011;39159;45.634;9.420;2024-03-25T09:31:33;2.70;;;1.92;;
53269;SDS011;39159;45.634;9.420;2024-03-25T09:33:58;20.70;;;3.50;;
53269;SDS011;39159;45.634;9.420;2024-03-25T09:36:24;5.70;;;2.22;;
53269;SDS011;39159;45.634;9.420;2024-03-25T09:38:49;3.28;;;1.80;;
53269;SDS011;39159;45.634;9.420;2024-03-25T09:41:16;7.03;;;2.13;;
53269;SDS011;39159;45.634;9.420;2024-03-25T09:43:44;3.13;;;1.60;;
53269;SDS011;39159;45.634;9.420;2024-03-25T09:46:14;8.10;;;1.77;;
53269;SDS011;39159;45.634;9.420;2024-03-25T09:48:41;3.45;;;1.60;;
53269;SDS011;39159;45.634;9.420;2024-03-25T09:51:07;8.02;;;1.60;;
53269;SDS011;39159;45.634;9.420;2024-03-25T09:53:33;1.35;;;1.23;;
53269;SDS011;39159;45.634;9.420;2024-03-25T09:55:59;4.38;;;1.30;;
53269;SDS011;39159;45.634;9.420;2024-03-25T09:58:25;2.85;;;1.20;;
53269;SDS011;39159;45.634;9.420;2024-03-25T10:00:51;1.85;;;0.98;;
53269;SDS011;39159;45.634;9.420;2024-03-25T10:03:16;1.70;;;1.10;;
53269;SDS011;39159;45.634;9.420;2024-03-25T10:05:42;2.50;;;1.20;;
53269;SDS011;39159;45.634;9.420;2024-03-25T10:08:07;1.90;;;1.30;;
53269;SDS011;39159;45.634;9.420;2024-03-25T10:10:33;1.02;;;0.98;;
53269;SDS011;39159;45.634;9.420;2024-03-25T10:12:59;1.55;;;1.10;;
53269;SDS011;39159;45.634;9.420;2024-03-25T10:15:25;1.90;;;1.23;;
53269;SDS011;39159;45.634;9.420;2024-03-25T10:17:51;1.65;;;1.20;;
53269;SDS011;39159;45.634;9.420;2024-03-25T10:20:17;1.45;;;1.13;;
53269;SDS011;39159;45.634;9.420;2024-03-25T10:22:43;1.33;;;1.10;;
53269;SDS011;39159;45.634;9.420;2024-03-25T10:25:28;1.40;;;1.30;;
53269;SDS011;39159;45.634;9.420;2024-03-25T10:28:00;0.98;;;0.98;;
53269;SDS011;39159;45.634;9.420;2024-03-25T10:30:27;1.25;;;1.05;;
53269;SDS011;39159;45.634;9.420;2024-03-25T10:35:29;1.15;;;1.08;;
53269;SDS011;39159;45.634;9.420;2024-03-25T10:38:03;1.13;;;1.02;;
53269;SDS011;39159;45.634;9.420;2024-03-25T10:40:33;1.48;;;1.00;;
53269;SDS011;39159;45.634;9.420;2024-03-25T10:43:09;5.13;;;1.10;;
53269;SDS011;39159;45.634;9.420;2024-03-25T10:45:42;1.30;;;1.00;;
53269;SDS011;39159;45.634;9.420;2024-03-25T10:48:26;2.67;;;1.42;;
53269;SDS011;39159;45.634;9.420;2024-03-25T10:50:56;4.43;;;1.30;;
53269;SDS011;39159;45.634;9.420;2024-03-25T10:53:25;5.45;;;1.60;;
53269;SDS011;39159;45.634;9.420;2024-03-25T10:55:53;1.83;;;1.30;;
53269;SDS011;39159;45.634;9.420;2024-03-25T10:58:20;1.90;;;1.10;;
53269;SDS011;39159;45.634;9.420;2024-03-25T11:00:48;1.20;;;1.10;;
53269;SDS011;39159;45.634;9.420;2024-03-25T11:03:15;1.95;;;1.05;;
53269;SDS011;39159;45.634;9.420;2024-03-25T11:05:40;1.35;;;1.20;;
53269;SDS011;39159;45.634;9.420;2024-03-25T11:08:10;1.33;;;1.10;;
53269;SDS011;39159;45.634;9.420;2024-03-25T11:13:14;3.90;;;1.63;;
53269;SDS011;39159;45.634;9.420;2024-03-25T11:15:46;1.40;;;1.20;;
53269;SDS011;39159;45.634;9.420;2024-03-25T11:18:14;2.30;;;1.30;;
53269;SDS011;39159;45.634;9.420;2024-03-25T11:20:48;1.20;;;1.10;;
53269;SDS011;39159;45.634;9.420;2024-03-25T11:23:25;1.55;;;1.25;;
53269;SDS011;39159;45.634;9.420;2024-03-25T11:25:54;1.08;;;1.00;;
53269;SDS011;39159;45.634;9.420;2024-03-25T11:28:26;1.10;;;1.00;;
53269;SDS011;39159;45.634;9.420;2024-03-25T11:33:17;3.40;;;1.17;;
53269;SDS011;39159;45.634;9.420;2024-03-25T11:35:43;4.13;;;1.60;;
53269;SDS011;39159;45.634;9.420;2024-03-25T11:38:08;2.63;;;1.27;;
53269;SDS011;39159;45.634;9.420;2024-03-25T11:40:34;2.58;;;1.20;;
53269;SDS011;39159;45.634;9.420;2024-03-25T11:43:00;4.90;;;1.13;;
53269;SDS011;39159;45.634;9.420;2024-03-25T11:45:26;1.10;;;1.00;;
53269;SDS011;39159;45.634;9.420;2024-03-25T11:47:51;4.07;;;1.50;;
53269;SDS011;39159;45.634;9.420;2024-03-25T11:50:17;1.70;;;1.15;;
53269;SDS011;39159;45.634;9.420;2024-03-25T11:52:44;1.92;;;0.95;;
53269;SDS011;39159;45.634;9.420;2024-03-25T11:55:10;5.35;;;1.50;;
53269;SDS011;39159;45.634;9.420;2024-03-25T11:57:38;2.20;;;1.10;;
53269;SDS011;39159;45.634;9.420;2024-03-25T12:00:04;1.15;;;1.08;;
53269;SDS011;39159;45.634;9.420;2024-03-25T12:02:31;4.28;;;1.23;;
53269;SDS011;39159;45.634;9.420;2024-03-25T12:04:57;1.30;;;1.10;;
53269;SDS011;39159;45.634;9.420;2024-03-25T12:07:22;1.52;;;1.00;;
53269;SDS011;39159;45.634;9.420;2024-03-25T12:09:47;2.88;;;1.10;;
53269;SDS011;39159;45.634;9.420;2024-03-25T12:12:32;2.08;;;1.20;;
53269;SDS011;39159;45.634;9.420;2024-03-25T12:14:57;1.10;;;1.10;;
53269;SDS011;39159;45.634;9.420;2024-03-25T12:17:23;2.97;;;1.27;;
53269;SDS011;39159;45.634;9.420;2024-03-25T12:19:59;1.10;;;1.00;;
53269;SDS011;39159;45.634;9.420;2024-03-25T12:22:34;2.42;;;1.13;;
53269;SDS011;39159;45.634;9.420;2024-03-25T12:25:00;1.60;;;1.20;;
53269;SDS011;39159;45.634;9.420;2024-03-25T12:27:28;1.80;;;1.17;;
53269;SDS011;39159;45.634;9.420;2024-03-25T12:30:04;1.83;;;1.23;;
53269;SDS011;39159;45.634;9.420;2024-03-25T12:32:38;1.73;;;1.20;;
53269;SDS011;39159;45.634;9.420;2024-03-25T12:37:33;2.63;;;1.20;;
53269;SDS011;39159;45.634;9.420;2024-03-25T12:39:59;3.42;;;1.38;;
53269;SDS011;39159;45.634;9.420;2024-03-25T12:42:25;1.20;;;1.10;;
53269;SDS011;39159;45.634;9.420;2024-03-25T12:44:52;2.03;;;1.40;;
53269;SDS011;39159;45.634;9.420;2024-03-25T12:47:18;1.85;;;1.30;;
53269;SDS011;39159;45.634;9.420;2024-03-25T12:49:43;1.83;;;1.33;;
53269;SDS011;39159;45.634;9.420;2024-03-25T12:52:08;2.03;;;1.23;;
53269;SDS011;39159;45.634;9.420;2024-03-25T12:54:34;2.60;;;1.30;;
53269;SDS011;39159;45.634;9.420;2024-03-25T12:56:59;1.83;;;1.40;;
53269;SDS011;39159;45.634;9.420;2024-03-25T12:59:25;1.60;;;1.30;;
53269;SDS011;39159;45.634;9.420;2024-03-25T13:01:50;2.97;;;1.60;;
53269;SDS011;39159;45.634;9.420;2024-03-25T13:04:16;1.70;;;1.60;;
53269;SDS011;39159;45.634;9.420;2024-03-25T13:06:42;1.40;;;1.20;;
53269;SDS011;39159;45.634;9.420;2024-03-25T13:09:08;1.73;;;1.38;;
53269;SDS011;39159;45.634;9.420;2024-03-25T13:11:33;3.63;;;1.40;;
53269;SDS011;39159;45.634;9.420;2024-03-25T13:13:59;3.63;;;1.73;;
53269;SDS011;39159;45.634;9.420;2024-03-25T13:16:25;3.22;;;1.13;;
53269;SDS011;39159;45.634;9.420;2024-03-25T13:18:51;1.30;;;1.20;;
53269;SDS011;39159;45.634;9.420;2024-03-25T13:21:16;1.50;;;1.40;;
53269;SDS011;39159;45.634;9.420;2024-03-25T13:23:41;1.95;;;1.30;;
53269;SDS011;39159;45.634;9.420;2024-03-25T13:26:07;1.60;;;1.30;;
53269;SDS011;39159;45.634;9.420;2024-03-25T13:28:32;2.72;;;1.42;;
53269;SDS011;39159;45.634;9.420;2024-03-25T13:30:58;3.70;;;1.30;;
53269;SDS011;39159;45.634;9.420;2024-03-25T13:33:23;1.50;;;1.40;;
53269;SDS011;39159;45.634;9.420;2024-03-25T13:35:48;1.50;;;1.30;;
53269;SDS011;39159;45.634;9.420;2024-03-25T13:38:14;4.10;;;1.40;;
53269;SDS011;39159;45.634;9.420;2024-03-25T13:40:39;2.95;;;1.30;;
53269;SDS011;39159;45.634;9.420;2024-03-25T13:43:05;3.08;;;1.35;;
53269;SDS011;39159;45.634;9.420;2024-03-25T13:45:33;2.83;;;1.77;;
53269;SDS011;39159;45.634;9.420;2024-03-25T13:47:58;2.20;;;1.70;;
53269;SDS011;39159;45.634;9.420;2024-03-25T13:50:24;1.90;;;1.50;;
53269;SDS011;39159;45.634;9.420;2024-03-25T13:52:49;2.97;;;1.60;;
53269;SDS011;39159;45.634;9.420;2024-03-25T13:55:14;2.17;;;1.52;;
53269;SDS011;39159;45.634;9.420;2024-03-25T13:57:40;7.65;;;1.70;;
53269;SDS011;39159;45.634;9.420;2024-03-25T14:00:05;2.78;;;1.58;;
53269;SDS011;39159;45.634;9.420;2024-03-25T14:02:35;2.65;;;1.75;;
53269;SDS011;39159;45.634;9.420;2024-03-25T14:05:02;3.38;;;1.60;;
53269;SDS011;39159;45.634;9.420;2024-03-25T14:07:28;4.32;;;1.50;;
53269;SDS011;39159;45.634;9.420;2024-03-25T14:09:53;4.32;;;2.28;;
53269;SDS011;39159;45.634;9.420;2024-03-25T14:12:18;4.13;;;1.70;;
53269;SDS011;39159;45.634;9.420;2024-03-25T14:14:44;2.90;;;1.30;;
53269;SDS011;39159;45.634;9.420;2024-03-25T14:17:09;6.88;;;1.80;;
53269;SDS011;39159;45.634;9.420;2024-03-25T14:19:34;2.13;;;1.60;;
53269;SDS011;39159;45.634;9.420;2024-03-25T14:22:00;3.30;;;1.55;;
53269;SDS011;39159;45.634;9.420;2024-03-25T14:24:25;6.68;;;1.55;;
53269;SDS011;39159;45.634;9.420;2024-03-25T14:26:51;1.65;;;1.45;;
53269;SDS011;39159;45.634;9.420;2024-03-25T14:29:16;3.08;;;1.45;;
53269;SDS011;39159;45.634;9.420;2024-03-25T14:31:41;1.70;;;1.45;;
53269;SDS011;39159;45.634;9.420;2024-03-25T14:34:07;1.88;;;1.58;;
53269;SDS011;39159;45.634;9.420;2024-03-25T14:36:33;3.90;;;1.60;;
53269;SDS011;39159;45.634;9.420;2024-03-25T14:39:00;1.50;;;1.40;;
53269;SDS011;39159;45.634;9.420;2024-03-25T14:41:26;3.80;;;1.45;;
53269;SDS011;39159;45.634;9.420;2024-03-25T14:43:51;2.67;;;1.45;;
53269;SDS011;39159;45.634;9.420;2024-03-25T14:46:17;8.88;;;1.67;;
53269;SDS011;39159;45.634;9.420;2024-03-25T14:48:43;2.72;;;1.40;;
53269;SDS011;39159;45.634;9.420;2024-03-25T14:51:09;1.40;;;1.30;;
53269;SDS011;39159;45.634;9.420;2024-03-25T14:53:34;3.65;;;1.38;;